Terminal Aerodrome Forecast
Issued by NWS Amarillo, TX

Home | Current Version | Previous Version | Text Only | Print | Product List | Glossary On
Versions: 1 2 3 4 5 6 7 8 9 10 11 12 13 14
136
FTUS44 KAMA 190520
TAFGUY
TAF
KGUY 190520Z 1906/2006 21018KT P6SM SCT200
     FM191700 21020G30KT P6SM SCT200
     FM200200 19019KT P6SM SCT200=

USA.gov is the U.S. government's official web portal to all federal, state and local government web resources and services.